sensor_id;sensor_type;location;lat;lon;timestamp;P1;durP1;ratioP1;P2;durP2;ratioP2
66264;SDS011;53055;44.648;21.148;2022-12-07T00:00:05;13.88;;;9.73;;
66264;SDS011;53055;44.648;21.148;2022-12-07T00:02:31;12.00;;;8.13;;
66264;SDS011;53055;44.648;21.148;2022-12-07T00:04:57;10.05;;;6.47;;
66264;SDS011;53055;44.648;21.148;2022-12-07T00:07:23;10.90;;;6.55;;
66264;SDS011;53055;44.648;21.148;2022-12-07T00:09:49;15.65;;;10.80;;
66264;SDS011;53055;44.648;21.148;2022-12-07T00:12:15;16.90;;;11.85;;
66264;SDS011;53055;44.648;21.148;2022-12-07T00:14:41;14.45;;;9.63;;
66264;SDS011;53055;44.648;21.148;2022-12-07T00:17:07;17.50;;;13.88;;
66264;SDS011;53055;44.648;21.148;2022-12-07T00:19:33;13.88;;;9.32;;
66264;SDS011;53055;44.648;21.148;2022-12-07T00:21:59;11.65;;;8.25;;
66264;SDS011;53055;44.648;21.148;2022-12-07T00:24:25;12.27;;;9.18;;
66264;SDS011;53055;44.648;21.148;2022-12-07T00:26:51;13.88;;;10.85;;
66264;SDS011;53055;44.648;21.148;2022-12-07T00:29:20;11.98;;;7.95;;
66264;SDS011;53055;44.648;21.148;2022-12-07T00:31:48;11.73;;;7.63;;
66264;SDS011;53055;44.648;21.148;2022-12-07T00:34:15;11.75;;;7.40;;
66264;SDS011;53055;44.648;21.148;2022-12-07T00:36:42;10.32;;;6.88;;
66264;SDS011;53055;44.648;21.148;2022-12-07T00:39:08;12.10;;;8.48;;
66264;SDS011;53055;44.648;21.148;2022-12-07T00:41:34;12.35;;;8.20;;
66264;SDS011;53055;44.648;21.148;2022-12-07T00:44:00;16.90;;;15.13;;
66264;SDS011;53055;44.648;21.148;2022-12-07T00:46:26;14.63;;;12.10;;
66264;SDS011;53055;44.648;21.148;2022-12-07T00:48:52;19.00;;;15.00;;
66264;SDS011;53055;44.648;21.148;2022-12-07T00:51:19;18.00;;;10.70;;
66264;SDS011;53055;44.648;21.148;2022-12-07T00:53:45;18.25;;;13.75;;
66264;SDS011;53055;44.648;21.148;2022-12-07T00:56:12;17.42;;;11.90;;
66264;SDS011;53055;44.648;21.148;2022-12-07T00:58:39;14.75;;;8.82;;
66264;SDS011;53055;44.648;21.148;2022-12-07T01:01:05;12.15;;;7.40;;
66264;SDS011;53055;44.648;21.148;2022-12-07T01:03:32;13.18;;;7.88;;
66264;SDS011;53055;44.648;21.148;2022-12-07T01:05:58;14.35;;;9.80;;
66264;SDS011;53055;44.648;21.148;2022-12-07T01:08:25;16.13;;;9.50;;
66264;SDS011;53055;44.648;21.148;2022-12-07T01:11:05;23.55;;;18.63;;
66264;SDS011;53055;44.648;21.148;2022-12-07T01:13:32;17.92;;;10.27;;
66264;SDS011;53055;44.648;21.148;2022-12-07T01:15:58;18.88;;;10.80;;
66264;SDS011;53055;44.648;21.148;2022-12-07T01:18:26;14.10;;;7.97;;
66264;SDS011;53055;44.648;21.148;2022-12-07T01:21:03;17.35;;;10.68;;
66264;SDS011;53055;44.648;21.148;2022-12-07T01:23:29;16.10;;;9.52;;
66264;SDS011;53055;44.648;21.148;2022-12-07T01:25:59;18.58;;;10.85;;
66264;SDS011;53055;44.648;21.148;2022-12-07T01:28:26;20.90;;;11.43;;
66264;SDS011;53055;44.648;21.148;2022-12-07T01:31:11;16.10;;;10.82;;
66264;SDS011;53055;44.648;21.148;2022-12-07T01:33:40;19.25;;;11.25;;
66264;SDS011;53055;44.648;21.148;2022-12-07T01:36:16;20.42;;;12.95;;
66264;SDS011;53055;44.648;21.148;2022-12-07T01:38:43;18.88;;;10.32;;
66264;SDS011;53055;44.648;21.148;2022-12-07T01:41:09;12.38;;;8.13;;
66264;SDS011;53055;44.648;21.148;2022-12-07T01:43:36;12.60;;;8.20;;
66264;SDS011;53055;44.648;21.148;2022-12-07T01:46:04;16.77;;;11.00;;
66264;SDS011;53055;44.648;21.148;2022-12-07T01:48:39;18.38;;;12.73;;
66264;SDS011;53055;44.648;21.148;2022-12-07T01:51:08;16.10;;;10.90;;
66264;SDS011;53055;44.648;21.148;2022-12-07T01:53:36;21.13;;;12.38;;
66264;SDS011;53055;44.648;21.148;2022-12-07T01:56:03;22.90;;;13.63;;
66264;SDS011;53055;44.648;21.148;2022-12-07T01:58:31;29.27;;;17.83;;
66264;SDS011;53055;44.648;21.148;2022-12-07T02:00:57;26.05;;;15.40;;
66264;SDS011;53055;44.648;21.148;2022-12-07T02:06:20;18.23;;;10.90;;
66264;SDS011;53055;44.648;21.148;2022-12-07T02:08:47;16.17;;;10.23;;
66264;SDS011;53055;44.648;21.148;2022-12-07T02:11:14;16.38;;;11.18;;
66264;SDS011;53055;44.648;21.148;2022-12-07T02:13:41;12.35;;;8.00;;
66264;SDS011;53055;44.648;21.148;2022-12-07T02:21:28;14.93;;;7.95;;
66264;SDS011;53055;44.648;21.148;2022-12-07T02:29:07;12.13;;;6.82;;
66264;SDS011;53055;44.648;21.148;2022-12-07T02:31:36;15.52;;;8.45;;
66264;SDS011;53055;44.648;21.148;2022-12-07T02:34:08;14.52;;;7.88;;
66264;SDS011;53055;44.648;21.148;2022-12-07T02:36:38;12.85;;;7.38;;
66264;SDS011;53055;44.648;21.148;2022-12-07T02:41:36;8.73;;;4.88;;
66264;SDS011;53055;44.648;21.148;2022-12-07T02:44:04;8.85;;;5.50;;
66264;SDS011;53055;44.648;21.148;2022-12-07T02:46:33;11.10;;;6.10;;
66264;SDS011;53055;44.648;21.148;2022-12-07T02:49:01;9.55;;;5.80;;
66264;SDS011;53055;44.648;21.148;2022-12-07T02:51:31;8.43;;;4.85;;
66264;SDS011;53055;44.648;21.148;2022-12-07T02:53:58;8.65;;;4.78;;
66264;SDS011;53055;44.648;21.148;2022-12-07T02:56:31;43.80;;;35.97;;
66264;SDS011;53055;44.648;21.148;2022-12-07T02:59:25;10.02;;;6.32;;
66264;SDS011;53055;44.648;21.148;2022-12-07T03:07:05;18.38;;;16.38;;
66264;SDS011;53055;44.648;21.148;2022-12-07T03:09:34;12.48;;;10.00;;
66264;SDS011;53055;44.648;21.148;2022-12-07T03:12:12;10.25;;;7.63;;
66264;SDS011;53055;44.648;21.148;2022-12-07T03:14:41;10.93;;;7.05;;
66264;SDS011;53055;44.648;21.148;2022-12-07T03:17:11;46.85;;;42.67;;
66264;SDS011;53055;44.648;21.148;2022-12-07T03:19:38;18.58;;;16.75;;
66264;SDS011;53055;44.648;21.148;2022-12-07T03:22:07;11.15;;;9.57;;
66264;SDS011;53055;44.648;21.148;2022-12-07T03:24:46;8.48;;;6.18;;
66264;SDS011;53055;44.648;21.148;2022-12-07T03:27:15;6.38;;;3.38;;
66264;SDS011;53055;44.648;21.148;2022-12-07T03:29:47;6.22;;;3.78;;
66264;SDS011;53055;44.648;21.148;2022-12-07T03:32:16;6.60;;;3.53;;
66264;SDS011;53055;44.648;21.148;2022-12-07T03:40:10;8.55;;;4.63;;
66264;SDS011;53055;44.648;21.148;2022-12-07T03:42:37;7.40;;;4.40;;
66264;SDS011;53055;44.648;21.148;2022-12-07T03:45:03;7.85;;;5.03;;
66264;SDS011;53055;44.648;21.148;2022-12-07T03:47:34;9.55;;;5.93;;
66264;SDS011;53055;44.648;21.148;2022-12-07T03:52:39;10.38;;;7.45;;
66264;SDS011;53055;44.648;21.148;2022-12-07T03:55:17;8.18;;;5.85;;
66264;SDS011;53055;44.648;21.148;2022-12-07T03:57:44;8.75;;;5.43;;
66264;SDS011;53055;44.648;21.148;2022-12-07T04:00:12;8.05;;;5.05;;
66264;SDS011;53055;44.648;21.148;2022-12-07T04:02:38;7.95;;;5.63;;
66264;SDS011;53055;44.648;21.148;2022-12-07T04:05:05;7.60;;;5.07;;
66264;SDS011;53055;44.648;21.148;2022-12-07T04:07:31;7.93;;;5.28;;
66264;SDS011;53055;44.648;21.148;2022-12-07T04:09:57;7.55;;;5.57;;
66264;SDS011;53055;44.648;21.148;2022-12-07T04:12:23;7.75;;;4.75;;
66264;SDS011;53055;44.648;21.148;2022-12-07T04:14:49;7.60;;;5.15;;
66264;SDS011;53055;44.648;21.148;2022-12-07T04:17:15;7.40;;;4.70;;
66264;SDS011;53055;44.648;21.148;2022-12-07T04:19:41;7.45;;;4.82;;
66264;SDS011;53055;44.648;21.148;2022-12-07T04:22:07;8.38;;;5.03;;
66264;SDS011;53055;44.648;21.148;2022-12-07T04:24:33;8.98;;;5.40;;
66264;SDS011;53055;44.648;21.148;2022-12-07T04:27:00;9.35;;;5.75;;
66264;SDS011;53055;44.648;21.148;2022-12-07T04:29:26;9.43;;;5.80;;
66264;SDS011;53055;44.648;21.148;2022-12-07T04:31:52;9.25;;;5.65;;
66264;SDS011;53055;44.648;21.148;2022-12-07T04:34:18;8.75;;;6.10;;
66264;SDS011;53055;44.648;21.148;2022-12-07T04:36:45;9.18;;;5.78;;
66264;SDS011;53055;44.648;21.148;2022-12-07T04:39:19;9.15;;;5.60;;
66264;SDS011;53055;44.648;21.148;2022-12-07T04:41:45;8.73;;;5.20;;
66264;SDS011;53055;44.648;21.148;2022-12-07T04:44:11;11.80;;;8.48;;
66264;SDS011;53055;44.648;21.148;2022-12-07T04:46:39;13.00;;;9.93;;
66264;SDS011;53055;44.648;21.148;2022-12-07T04:49:05;12.07;;;10.13;;
66264;SDS011;53055;44.648;21.148;2022-12-07T04:51:31;10.68;;;7.00;;
66264;SDS011;53055;44.648;21.148;2022-12-07T04:53:57;8.40;;;5.05;;
66264;SDS011;53055;44.648;21.148;2022-12-07T04:56:24;9.05;;;5.15;;
66264;SDS011;53055;44.648;21.148;2022-12-07T04:58:51;6.38;;;3.53;;
66264;SDS011;53055;44.648;21.148;2022-12-07T05:01:17;6.65;;;3.70;;
66264;SDS011;53055;44.648;21.148;2022-12-07T05:03:43;6.78;;;4.05;;
66264;SDS011;53055;44.648;21.148;2022-12-07T05:06:10;7.35;;;4.50;;
66264;SDS011;53055;44.648;21.148;2022-12-07T05:08:36;8.85;;;4.93;;
66264;SDS011;53055;44.648;21.148;2022-12-07T05:11:02;7.20;;;3.92;;
66264;SDS011;53055;44.648;21.148;2022-12-07T05:13:28;8.40;;;5.00;;
66264;SDS011;53055;44.648;21.148;2022-12-07T05:15:54;11.60;;;7.80;;
66264;SDS011;53055;44.648;21.148;2022-12-07T05:18:21;18.42;;;12.35;;
66264;SDS011;53055;44.648;21.148;2022-12-07T05:20:47;16.70;;;11.50;;
66264;SDS011;53055;44.648;21.148;2022-12-07T05:23:13;14.93;;;10.52;;
66264;SDS011;53055;44.648;21.148;2022-12-07T05:25:39;12.77;;;9.15;;
66264;SDS011;53055;44.648;21.148;2022-12-07T05:28:05;8.45;;;5.63;;
66264;SDS011;53055;44.648;21.148;2022-12-07T05:30:32;7.22;;;4.43;;
66264;SDS011;53055;44.648;21.148;2022-12-07T05:32:58;7.50;;;5.07;;
66264;SDS011;53055;44.648;21.148;2022-12-07T05:35:24;8.13;;;5.50;;
66264;SDS011;53055;44.648;21.148;2022-12-07T05:37:50;9.65;;;4.95;;
66264;SDS011;53055;44.648;21.148;2022-12-07T05:40:16;10.85;;;6.43;;
66264;SDS011;53055;44.648;21.148;2022-12-07T05:42:43;12.30;;;8.27;;
66264;SDS011;53055;44.648;21.148;2022-12-07T05:45:10;9.95;;;6.65;;
66264;SDS011;53055;44.648;21.148;2022-12-07T05:47:36;8.80;;;6.00;;
66264;SDS011;53055;44.648;21.148;2022-12-07T05:50:03;18.40;;;13.10;;
66264;SDS011;53055;44.648;21.148;2022-12-07T05:52:29;15.25;;;9.95;;
66264;SDS011;53055;44.648;21.148;2022-12-07T05:54:55;17.63;;;9.75;;
66264;SDS011;53055;44.648;21.148;2022-12-07T05:57:21;18.08;;;10.82;;
66264;SDS011;53055;44.648;21.148;2022-12-07T05:59:47;18.88;;;11.57;;
66264;SDS011;53055;44.648;21.148;2022-12-07T06:02:14;12.35;;;8.48;;
66264;SDS011;53055;44.648;21.148;2022-12-07T06:04:41;10.57;;;7.28;;
66264;SDS011;53055;44.648;21.148;2022-12-07T06:07:08;10.00;;;6.95;;
66264;SDS011;53055;44.648;21.148;2022-12-07T06:09:34;7.35;;;4.35;;
66264;SDS011;53055;44.648;21.148;2022-12-07T06:12:00;6.75;;;4.22;;
66264;SDS011;53055;44.648;21.148;2022-12-07T06:14:45;7.88;;;5.07;;
66264;SDS011;53055;44.648;21.148;2022-12-07T06:17:12;12.88;;;7.32;;
66264;SDS011;53055;44.648;21.148;2022-12-07T06:19:38;9.23;;;5.90;;
66264;SDS011;53055;44.648;21.148;2022-12-07T06:22:05;14.52;;;8.50;;
66264;SDS011;53055;44.648;21.148;2022-12-07T06:24:32;24.30;;;17.23;;
66264;SDS011;53055;44.648;21.148;2022-12-07T06:26:58;25.52;;;19.30;;
66264;SDS011;53055;44.648;21.148;2022-12-07T06:29:24;29.58;;;25.17;;
66264;SDS011;53055;44.648;21.148;2022-12-07T06:31:50;25.75;;;19.85;;
66264;SDS011;53055;44.648;21.148;2022-12-07T06:34:17;16.27;;;13.38;;
66264;SDS011;53055;44.648;21.148;2022-12-07T06:36:44;20.48;;;18.50;;
66264;SDS011;53055;44.648;21.148;2022-12-07T06:39:10;16.83;;;15.15;;
66264;SDS011;53055;44.648;21.148;2022-12-07T06:41:39;15.02;;;13.52;;
66264;SDS011;53055;44.648;21.148;2022-12-07T06:44:05;16.55;;;14.18;;
66264;SDS011;53055;44.648;21.148;2022-12-07T06:46:32;35.47;;;31.63;;
66264;SDS011;53055;44.648;21.148;2022-12-07T06:49:00;51.78;;;44.08;;
66264;SDS011;53055;44.648;21.148;2022-12-07T06:51:26;19.45;;;15.38;;
66264;SDS011;53055;44.648;21.148;2022-12-07T06:53:52;18.42;;;14.05;;
66264;SDS011;53055;44.648;21.148;2022-12-07T06:56:18;17.98;;;13.52;;
66264;SDS011;53055;44.648;21.148;2022-12-07T06:58:44;16.83;;;13.68;;
66264;SDS011;53055;44.648;21.148;2022-12-07T07:01:10;16.48;;;14.13;;
66264;SDS011;53055;44.648;21.148;2022-12-07T07:03:37;18.60;;;14.07;;
66264;SDS011;53055;44.648;21.148;2022-12-07T07:06:03;15.20;;;13.18;;
66264;SDS011;53055;44.648;21.148;2022-12-07T07:08:29;13.52;;;10.63;;
66264;SDS011;53055;44.648;21.148;2022-12-07T07:10:55;10.18;;;7.38;;
66264;SDS011;53055;44.648;21.148;2022-12-07T07:13:21;11.05;;;7.57;;
66264;SDS011;53055;44.648;21.148;2022-12-07T07:15:47;17.58;;;15.10;;
66264;SDS011;53055;44.648;21.148;2022-12-07T07:18:13;14.90;;;12.27;;
66264;SDS011;53055;44.648;21.148;2022-12-07T07:20:39;17.83;;;14.38;;
66264;SDS011;53055;44.648;21.148;2022-12-07T07:23:05;16.38;;;14.52;;
66264;SDS011;53055;44.648;21.148;2022-12-07T07:25:32;14.70;;;10.02;;
66264;SDS011;53055;44.648;21.148;2022-12-07T07:27:58;17.02;;;13.20;;
66264;SDS011;53055;44.648;21.148;2022-12-07T07:30:24;21.42;;;16.15;;
66264;SDS011;53055;44.648;21.148;2022-12-07T07:32:50;34.72;;;30.13;;
66264;SDS011;53055;44.648;21.148;2022-12-07T07:35:17;40.00;;;35.88;;
66264;SDS011;53055;44.648;21.148;2022-12-07T07:37:43;42.35;;;35.55;;
66264;SDS011;53055;44.648;21.148;2022-12-07T07:40:09;49.35;;;38.20;;
66264;SDS011;53055;44.648;21.148;2022-12-07T07:42:35;66.22;;;56.65;;
66264;SDS011;53055;44.648;21.148;2022-12-07T07:45:01;43.33;;;34.63;;
66264;SDS011;53055;44.648;21.148;2022-12-07T07:47:27;50.20;;;38.15;;
66264;SDS011;53055;44.648;21.148;2022-12-07T07:49:54;35.08;;;27.02;;
66264;SDS011;53055;44.648;21.148;2022-12-07T07:52:20;19.30;;;16.90;;
66264;SDS011;53055;44.648;21.148;2022-12-07T07:54:46;13.85;;;9.95;;
66264;SDS011;53055;44.648;21.148;2022-12-07T07:57:12;15.52;;;12.15;;
66264;SDS011;53055;44.648;21.148;2022-12-07T07:59:38;16.42;;;11.70;;
66264;SDS011;53055;44.648;21.148;2022-12-07T08:02:04;16.58;;;11.98;;
66264;SDS011;53055;44.648;21.148;2022-12-07T08:04:30;15.40;;;12.00;;
66264;SDS011;53055;44.648;21.148;2022-12-07T08:06:56;17.98;;;15.30;;
66264;SDS011;53055;44.648;21.148;2022-12-07T08:09:22;16.88;;;13.50;;
66264;SDS011;53055;44.648;21.148;2022-12-07T08:11:48;19.17;;;14.15;;
66264;SDS011;53055;44.648;21.148;2022-12-07T08:14:14;16.80;;;13.00;;
66264;SDS011;53055;44.648;21.148;2022-12-07T08:16:40;20.40;;;14.35;;
66264;SDS011;53055;44.648;21.148;2022-12-07T08:19:06;15.93;;;11.95;;
66264;SDS011;53055;44.648;21.148;2022-12-07T08:21:32;17.75;;;13.70;;
66264;SDS011;53055;44.648;21.148;2022-12-07T08:23:58;33.63;;;29.90;;
66264;SDS011;53055;44.648;21.148;2022-12-07T08:26:24;23.70;;;19.13;;
66264;SDS011;53055;44.648;21.148;2022-12-07T08:28:52;44.80;;;39.45;;
66264;SDS011;53055;44.648;21.148;2022-12-07T08:31:18;23.13;;;19.70;;
66264;SDS011;53055;44.648;21.148;2022-12-07T08:33:45;18.92;;;14.50;;
66264;SDS011;53055;44.648;21.148;2022-12-07T08:36:11;15.45;;;12.43;;
66264;SDS011;53055;44.648;21.148;2022-12-07T08:38:38;16.15;;;12.05;;
66264;SDS011;53055;44.648;21.148;2022-12-07T08:41:05;22.13;;;16.35;;
66264;SDS011;53055;44.648;21.148;2022-12-07T08:43:31;61.83;;;55.15;;
66264;SDS011;53055;44.648;21.148;2022-12-07T08:46:06;89.05;;;79.53;;
66264;SDS011;53055;44.648;21.148;2022-12-07T08:48:32;23.20;;;20.83;;
66264;SDS011;53055;44.648;21.148;2022-12-07T08:51:00;17.77;;;15.38;;
66264;SDS011;53055;44.648;21.148;2022-12-07T08:53:27;19.08;;;16.48;;
66264;SDS011;53055;44.648;21.148;2022-12-07T08:55:53;18.77;;;16.05;;
66264;SDS011;53055;44.648;21.148;2022-12-07T08:58:19;15.75;;;14.05;;
66264;SDS011;53055;44.648;21.148;2022-12-07T09:00:45;27.70;;;22.45;;
66264;SDS011;53055;44.648;21.148;2022-12-07T09:03:11;43.50;;;33.67;;
66264;SDS011;53055;44.648;21.148;2022-12-07T09:05:37;43.60;;;35.13;;
66264;SDS011;53055;44.648;21.148;2022-12-07T09:08:03;46.75;;;35.47;;
66264;SDS011;53055;44.648;21.148;2022-12-07T09:10:29;45.25;;;34.95;;
66264;SDS011;53055;44.648;21.148;2022-12-07T09:12:56;36.13;;;28.80;;
66264;SDS011;53055;44.648;21.148;2022-12-07T09:15:25;45.28;;;34.10;;
66264;SDS011;53055;44.648;21.148;2022-12-07T09:17:52;53.38;;;35.63;;
66264;SDS011;53055;44.648;21.148;2022-12-07T09:20:18;14.73;;;12.10;;
66264;SDS011;53055;44.648;21.148;2022-12-07T09:22:44;11.63;;;7.63;;
66264;SDS011;53055;44.648;21.148;2022-12-07T09:25:10;17.92;;;14.88;;
66264;SDS011;53055;44.648;21.148;2022-12-07T09:27:36;20.58;;;16.50;;
66264;SDS011;53055;44.648;21.148;2022-12-07T09:30:02;36.47;;;27.08;;
66264;SDS011;53055;44.648;21.148;2022-12-07T09:32:29;59.28;;;40.10;;
66264;SDS011;53055;44.648;21.148;2022-12-07T09:34:55;40.67;;;31.00;;
66264;SDS011;53055;44.648;21.148;2022-12-07T09:37:21;37.70;;;28.17;;
66264;SDS011;53055;44.648;21.148;2022-12-07T09:39:47;28.38;;;18.05;;
66264;SDS011;53055;44.648;21.148;2022-12-07T09:42:25;23.52;;;19.05;;
66264;SDS011;53055;44.648;21.148;2022-12-07T09:44:53;34.97;;;25.10;;
66264;SDS011;53055;44.648;21.148;2022-12-07T09:47:19;30.00;;;26.10;;
66264;SDS011;53055;44.648;21.148;2022-12-07T09:49:45;49.38;;;41.05;;
66264;SDS011;53055;44.648;21.148;2022-12-07T09:52:19;60.60;;;46.90;;
66264;SDS011;53055;44.648;21.148;2022-12-07T09:54:46;63.55;;;51.95;;
66264;SDS011;53055;44.648;21.148;2022-12-07T09:57:12;46.22;;;41.30;;
66264;SDS011;53055;44.648;21.148;2022-12-07T09:59:39;44.25;;;36.75;;
66264;SDS011;53055;44.648;21.148;2022-12-07T10:04:50;24.75;;;18.33;;
66264;SDS011;53055;44.648;21.148;2022-12-07T10:07:16;28.55;;;20.98;;
66264;SDS011;53055;44.648;21.148;2022-12-07T10:09:42;65.43;;;50.50;;
66264;SDS011;53055;44.648;21.148;2022-12-07T10:12:09;18.92;;;15.45;;
66264;SDS011;53055;44.648;21.148;2022-12-07T10:14:40;19.67;;;16.33;;
66264;SDS011;53055;44.648;21.148;2022-12-07T10:17:25;23.15;;;20.65;;
66264;SDS011;53055;44.648;21.148;2022-12-07T10:19:52;21.48;;;19.23;;
66264;SDS011;53055;44.648;21.148;2022-12-07T10:22:33;21.67;;;16.95;;
66264;SDS011;53055;44.648;21.148;2022-12-07T10:25:07;29.25;;;18.40;;
66264;SDS011;53055;44.648;21.148;2022-12-07T10:27:34;37.75;;;26.33;;
66264;SDS011;53055;44.648;21.148;2022-12-07T10:30:01;28.00;;;23.13;;
66264;SDS011;53055;44.648;21.148;2022-12-07T10:32:33;24.13;;;21.15;;
66264;SDS011;53055;44.648;21.148;2022-12-07T10:37:56;33.40;;;29.80;;
66264;SDS011;53055;44.648;21.148;2022-12-07T11:06:21;17.92;;;14.55;;
66264;SDS011;53055;44.648;21.148;2022-12-07T11:17:01;25.65;;;22.95;;
66264;SDS011;53055;44.648;21.148;2022-12-07T11:21:51;25.45;;;22.85;;
66264;SDS011;53055;44.648;21.148;2022-12-07T11:24:19;22.60;;;20.15;;
66264;SDS011;53055;44.648;21.148;2022-12-07T11:32:14;37.80;;;29.92;;
66264;SDS011;53055;44.648;21.148;2022-12-07T11:37:30;29.83;;;25.60;;
66264;SDS011;53055;44.648;21.148;2022-12-07T11:40:02;33.30;;;29.67;;
66264;SDS011;53055;44.648;21.148;2022-12-07T11:42:39;20.20;;;17.20;;
66264;SDS011;53055;44.648;21.148;2022-12-07T11:45:19;30.90;;;26.15;;
66264;SDS011;53055;44.648;21.148;2022-12-07T11:47:47;20.55;;;16.23;;
66264;SDS011;53055;44.648;21.148;2022-12-07T11:50:27;70.40;;;63.40;;
66264;SDS011;53055;44.648;21.148;2022-12-07T11:55:32;63.30;;;50.50;;
66264;SDS011;53055;44.648;21.148;2022-12-07T11:58:05;42.63;;;32.05;;
66264;SDS011;53055;44.648;21.148;2022-12-07T12:00:37;65.20;;;49.22;;
66264;SDS011;53055;44.648;21.148;2022-12-07T12:03:15;41.90;;;32.60;;
66264;SDS011;53055;44.648;21.148;2022-12-07T12:05:43;56.72;;;43.42;;
66264;SDS011;53055;44.648;21.148;2022-12-07T12:08:16;66.18;;;51.30;;
66264;SDS011;53055;44.648;21.148;2022-12-07T12:24:17;39.20;;;33.78;;
66264;SDS011;53055;44.648;21.148;2022-12-07T12:26:47;41.53;;;36.95;;
66264;SDS011;53055;44.648;21.148;2022-12-07T12:31:41;40.13;;;30.58;;
66264;SDS011;53055;44.648;21.148;2022-12-07T12:36:51;30.65;;;22.48;;
66264;SDS011;53055;44.648;21.148;2022-12-07T12:39:17;26.10;;;19.95;;
66264;SDS011;53055;44.648;21.148;2022-12-07T12:51:46;23.30;;;20.02;;
66264;SDS011;53055;44.648;21.148;2022-12-07T12:54:22;24.42;;;21.77;;
66264;SDS011;53055;44.648;21.148;2022-12-07T12:59:26;23.25;;;18.27;;
66264;SDS011;53055;44.648;21.148;2022-12-07T13:02:16;21.23;;;17.45;;
66264;SDS011;53055;44.648;21.148;2022-12-07T13:10:00;17.92;;;14.13;;
66264;SDS011;53055;44.648;21.148;2022-12-07T13:12:27;18.05;;;13.52;;
66264;SDS011;53055;44.648;21.148;2022-12-07T13:14:54;19.02;;;14.68;;
66264;SDS011;53055;44.648;21.148;2022-12-07T13:19:57;23.52;;;19.10;;
66264;SDS011;53055;44.648;21.148;2022-12-07T13:22:34;23.02;;;18.85;;
66264;SDS011;53055;44.648;21.148;2022-12-07T13:25:17;22.80;;;18.08;;
66264;SDS011;53055;44.648;21.148;2022-12-07T13:27:47;25.88;;;21.70;;
66264;SDS011;53055;44.648;21.148;2022-12-07T13:30:15;23.95;;;18.73;;
66264;SDS011;53055;44.648;21.148;2022-12-07T13:32:42;23.25;;;19.13;;
66264;SDS011;53055;44.648;21.148;2022-12-07T13:37:53;25.02;;;21.08;;
66264;SDS011;53055;44.648;21.148;2022-12-07T13:40:20;24.40;;;20.25;;
66264;SDS011;53055;44.648;21.148;2022-12-07T13:42:46;26.92;;;22.08;;
66264;SDS011;53055;44.648;21.148;2022-12-07T13:45:22;42.38;;;28.20;;
66264;SDS011;53055;44.648;21.148;2022-12-07T13:48:12;40.17;;;32.00;;
66264;SDS011;53055;44.648;21.148;2022-12-07T13:50:40;34.53;;;28.55;;
66264;SDS011;53055;44.648;21.148;2022-12-07T13:53:07;36.60;;;31.60;;
66264;SDS011;53055;44.648;21.148;2022-12-07T13:55:37;46.53;;;36.97;;
66264;SDS011;53055;44.648;21.148;2022-12-07T13:58:09;32.13;;;27.02;;
66264;SDS011;53055;44.648;21.148;2022-12-07T14:00:36;36.05;;;28.83;;
66264;SDS011;53055;44.648;21.148;2022-12-07T14:03:03;83.50;;;66.68;;
66264;SDS011;53055;44.648;21.148;2022-12-07T14:05:33;106.60;;;88.70;;
66264;SDS011;53055;44.648;21.148;2022-12-07T14:08:21;55.67;;;45.63;;
66264;SDS011;53055;44.648;21.148;2022-12-07T14:15:54;36.72;;;32.80;;
66264;SDS011;53055;44.648;21.148;2022-12-07T14:18:29;40.00;;;35.08;;
66264;SDS011;53055;44.648;21.148;2022-12-07T14:23:37;46.33;;;41.38;;
66264;SDS011;53055;44.648;21.148;2022-12-07T14:26:13;98.25;;;78.03;;
66264;SDS011;53055;44.648;21.148;2022-12-07T14:28:40;81.10;;;59.40;;
66264;SDS011;53055;44.648;21.148;2022-12-07T14:31:11;67.88;;;55.58;;
66264;SDS011;53055;44.648;21.148;2022-12-07T14:33:37;47.85;;;38.92;;
66264;SDS011;53055;44.648;21.148;2022-12-07T14:36:04;50.25;;;42.83;;
66264;SDS011;53055;44.648;21.148;2022-12-07T14:38:30;38.80;;;33.38;;
66264;SDS011;53055;44.648;21.148;2022-12-07T14:40:56;29.88;;;26.55;;
66264;SDS011;53055;44.648;21.148;2022-12-07T14:43:42;23.90;;;21.50;;
66264;SDS011;53055;44.648;21.148;2022-12-07T14:46:08;24.30;;;18.63;;
66264;SDS011;53055;44.648;21.148;2022-12-07T14:48:35;34.65;;;30.85;;
66264;SDS011;53055;44.648;21.148;2022-12-07T14:51:01;19.35;;;16.10;;
66264;SDS011;53055;44.648;21.148;2022-12-07T14:53:31;22.15;;;17.90;;
66264;SDS011;53055;44.648;21.148;2022-12-07T14:55:59;29.40;;;23.02;;
66264;SDS011;53055;44.648;21.148;2022-12-07T14:58:25;25.08;;;21.42;;
66264;SDS011;53055;44.648;21.148;2022-12-07T15:00:51;16.35;;;13.40;;
66264;SDS011;53055;44.648;21.148;2022-12-07T15:03:17;14.93;;;12.43;;
66264;SDS011;53055;44.648;21.148;2022-12-07T15:05:43;15.68;;;11.70;;
66264;SDS011;53055;44.648;21.148;2022-12-07T15:08:10;17.02;;;13.93;;
66264;SDS011;53055;44.648;21.148;2022-12-07T15:10:37;80.68;;;73.43;;
66264;SDS011;53055;44.648;21.148;2022-12-07T15:13:05;31.80;;;28.55;;
66264;SDS011;53055;44.648;21.148;2022-12-07T15:15:51;37.30;;;30.40;;
66264;SDS011;53055;44.648;21.148;2022-12-07T15:18:18;45.92;;;41.15;;
66264;SDS011;53055;44.648;21.148;2022-12-07T15:20:44;50.97;;;45.33;;
66264;SDS011;53055;44.648;21.148;2022-12-07T15:23:11;195.55;;;175.02;;
66264;SDS011;53055;44.648;21.148;2022-12-07T15:25:40;65.18;;;59.83;;
66264;SDS011;53055;44.648;21.148;2022-12-07T15:28:06;38.00;;;34.00;;
66264;SDS011;53055;44.648;21.148;2022-12-07T15:30:32;30.10;;;27.15;;
66264;SDS011;53055;44.648;21.148;2022-12-07T15:32:58;25.48;;;23.02;;
66264;SDS011;53055;44.648;21.148;2022-12-07T15:35:24;24.00;;;20.23;;
66264;SDS011;53055;44.648;21.148;2022-12-07T15:37:50;21.95;;;19.13;;
66264;SDS011;53055;44.648;21.148;2022-12-07T15:40:16;21.75;;;18.63;;
66264;SDS011;53055;44.648;21.148;2022-12-07T15:42:42;35.20;;;24.48;;
66264;SDS011;53055;44.648;21.148;2022-12-07T15:45:08;32.00;;;22.50;;
66264;SDS011;53055;44.648;21.148;2022-12-07T15:47:35;20.30;;;16.27;;
66264;SDS011;53055;44.648;21.148;2022-12-07T15:50:05;25.65;;;19.23;;
66264;SDS011;53055;44.648;21.148;2022-12-07T15:52:32;20.80;;;16.00;;
66264;SDS011;53055;44.648;21.148;2022-12-07T15:54:58;16.40;;;12.73;;
66264;SDS011;53055;44.648;21.148;2022-12-07T15:57:30;26.75;;;19.98;;
66264;SDS011;53055;44.648;21.148;2022-12-07T15:59:57;24.27;;;18.33;;
66264;SDS011;53055;44.648;21.148;2022-12-07T16:02:23;30.35;;;23.95;;
66264;SDS011;53055;44.648;21.148;2022-12-07T16:04:49;28.85;;;23.80;;
66264;SDS011;53055;44.648;21.148;2022-12-07T16:07:15;21.50;;;18.10;;
66264;SDS011;53055;44.648;21.148;2022-12-07T16:09:43;28.92;;;25.17;;
66264;SDS011;53055;44.648;21.148;2022-12-07T16:12:09;20.67;;;16.75;;
66264;SDS011;53055;44.648;21.148;2022-12-07T16:14:36;24.33;;;22.08;;
66264;SDS011;53055;44.648;21.148;2022-12-07T16:17:02;25.85;;;23.48;;
66264;SDS011;53055;44.648;21.148;2022-12-07T16:19:29;32.60;;;29.52;;
66264;SDS011;53055;44.648;21.148;2022-12-07T16:21:56;19.27;;;16.17;;
66264;SDS011;53055;44.648;21.148;2022-12-07T16:24:22;16.27;;;12.55;;
66264;SDS011;53055;44.648;21.148;2022-12-07T16:26:48;18.48;;;15.02;;
66264;SDS011;53055;44.648;21.148;2022-12-07T16:29:14;17.20;;;12.52;;